createdAt,value
2019-01-08T00:00:46.568Z,16.7
2019-01-08T00:01:36.887Z,16.7
2019-01-08T00:02:26.960Z,16.7
2019-01-08T00:03:17.000Z,16.7
2019-01-08T00:04:06.791Z,16.7
2019-01-08T00:04:57.103Z,16.7
2019-01-08T00:05:47.460Z,16.7
2019-01-08T00:06:37.230Z,16.7
2019-01-08T00:07:26.540Z,16.7
2019-01-08T00:08:17.617Z,16.7
2019-01-08T00:09:06.835Z,16.7
2019-01-08T00:09:57.450Z,16.7
2019-01-08T00:10:47.777Z,16.7
2019-01-08T00:11:37.900Z,16.7
2019-01-08T00:12:27.337Z,16.7
2019-01-08T00:13:17.657Z,16.7
2019-01-08T00:14:07.459Z,16.7
2019-01-08T00:14:57.507Z,16.7
2019-01-08T00:33:01.546Z,16.6
2019-01-08T00:33:51.676Z,16.6
2019-01-08T00:34:41.653Z,16.6
2019-01-08T00:35:32.249Z,16.6
2019-01-08T00:36:21.208Z,16.6
2019-01-08T00:37:11.812Z,16.6
2019-01-08T00:38:02.153Z,16.6
2019-01-08T00:38:51.929Z,16.6
2019-01-08T00:39:41.962Z,16.6
2019-01-08T00:40:32.586Z,16.6
2019-01-08T00:41:37.310Z,16.6
2019-01-08T00:42:12.680Z,16.6
2019-01-08T00:43:02.758Z,16.6
2019-01-08T00:43:52.528Z,16.6
2019-01-08T00:44:42.400Z,16.6
2019-01-08T00:45:32.917Z,16.6
2019-01-08T00:46:22.706Z,16.6
2019-01-08T00:47:12.478Z,16.6
2019-01-08T00:48:02.325Z,16.6
2019-01-08T00:48:52.905Z,16.6
2019-01-08T00:49:42.907Z,16.6
2019-01-08T00:50:32.990Z,16.6
2019-01-08T00:51:21.987Z,16.6
2019-01-08T00:52:12.332Z,16.6
2019-01-08T00:53:02.392Z,16.6
2019-01-08T00:53:52.470Z,16.6
2019-01-08T00:54:42.507Z,16.6
2019-01-08T00:55:33.052Z,16.6
2019-01-08T00:56:23.634Z,16.6
2019-01-08T00:57:13.134Z,16.6
2019-01-08T00:58:03.740Z,16.6
2019-01-08T00:58:54.667Z,16.6
2019-01-08T00:59:43.659Z,16.6
2019-01-08T01:00:33.648Z,16.6
2019-01-08T01:01:23.425Z,16.6
2019-01-08T01:02:13.765Z,16.6
2019-01-08T01:03:03.549Z,16.6
2019-01-08T01:03:53.891Z,16.6
2019-01-08T01:04:43.642Z,16.6
2019-01-08T01:05:34.248Z,16.6
2019-01-08T01:06:24.284Z,16.6
2019-01-08T01:07:14.122Z,16.6
2019-01-08T01:08:04.155Z,16.6
2019-01-08T01:08:53.939Z,16.6
2019-01-08T01:09:44.001Z,16.6
2019-01-08T01:10:34.331Z,16.6
2019-01-08T01:11:24.393Z,16.6
2019-01-08T01:12:14.174Z,16.6
2019-01-08T01:13:04.488Z,16.6
2019-01-08T01:13:53.738Z,16.6
2019-01-08T01:14:44.707Z,16.6
2019-01-08T01:15:34.667Z,16.6
2019-01-08T01:16:24.445Z,16.6
2019-01-08T01:17:14.495Z,16.6
2019-01-08T01:18:04.280Z,16.6
2019-01-08T01:18:54.335Z,16.6
2019-01-08T01:19:45.218Z,16.6
2019-01-08T01:20:35.353Z,16.6
2019-01-08T01:21:25.070Z,16.6
2019-01-08T01:22:14.838Z,16.6
2019-01-08T01:23:05.193Z,16.6
2019-01-08T01:23:54.943Z,16.6
2019-01-08T01:24:45.280Z,16.6
2019-01-08T01:25:35.608Z,16.6
2019-01-08T01:26:24.885Z,16.6
2019-01-08T01:27:15.709Z,16.6
2019-01-08T01:28:05.218Z,16.6
2019-01-08T01:29:02.905Z,16.6
2019-01-08T01:29:45.622Z,16.6
2019-01-08T01:30:35.394Z,16.6
2019-01-08T01:31:25.171Z,16.6
2019-01-08T01:32:16.050Z,16.6
2019-01-08T01:33:05.938Z,16.6
2019-01-08T01:33:55.901Z,16.6
2019-01-08T01:34:46.228Z,16.6
2019-01-08T01:35:36.377Z,16.6
2019-01-08T01:36:25.791Z,16.6
2019-01-08T01:37:16.105Z,16.6
2019-01-08T01:38:05.700Z,16.6
2019-01-08T01:38:55.682Z,16.6
2019-01-08T01:39:46.296Z,16.6
2019-01-08T01:40:35.579Z,16.6
2019-01-08T01:41:26.201Z,16.6
2019-01-08T01:42:15.694Z,16.6
2019-01-08T01:43:06.042Z,16.6
2019-01-08T01:43:55.772Z,16.6
2019-01-08T01:44:46.153Z,16.6
2019-01-08T01:45:36.776Z,16.6
2019-01-08T01:46:26.741Z,16.6
2019-01-08T01:47:17.081Z,16.6
2019-01-08T01:48:06.845Z,16.6
2019-01-08T01:48:56.891Z,16.6
2019-01-08T01:49:47.261Z,16.6
2019-01-08T01:50:36.933Z,16.6
2019-01-08T01:51:26.501Z,16.6
2019-01-08T01:52:17.487Z,16.6
2019-01-08T01:53:06.912Z,16.5
2019-01-08T01:53:57.236Z,16.6
2019-01-08T01:54:47.294Z,16.5
2019-01-08T01:55:37.108Z,16.5
2019-01-08T01:56:26.871Z,16.6
2019-01-08T01:57:17.191Z,16.6
2019-01-08T01:58:06.971Z,16.5
2019-01-08T01:58:57.851Z,16.6
2019-01-08T01:59:47.356Z,16.6
2019-01-08T02:00:37.963Z,16.6
2019-01-08T02:01:27.748Z,16.6
2019-01-08T02:02:17.854Z,16.5
2019-01-08T02:03:07.405Z,16.5
2019-01-08T02:03:57.635Z,16.6
2019-01-08T02:04:48.248Z,16.5
2019-01-08T02:05:38.467Z,16.6
2019-01-08T02:06:28.424Z,16.5
2019-01-08T02:07:17.908Z,16.5
2019-01-08T02:08:08.247Z,16.5
2019-01-08T02:08:57.775Z,16.5
2019-01-08T02:09:47.755Z,16.5
2019-01-08T02:10:38.685Z,16.5
2019-01-08T02:11:28.150Z,16.5
2019-01-08T02:12:18.475Z,16.5
2019-01-08T02:13:08.302Z,16.5
2019-01-08T02:13:58.580Z,16.5
2019-01-08T02:14:48.372Z,16.5
2019-01-08T02:15:38.754Z,16.5
2019-01-08T02:16:28.662Z,16.6
2019-01-08T02:17:17.726Z,16.5
2019-01-08T02:18:08.857Z,16.5
2019-01-08T02:18:58.997Z,16.6
2019-01-08T02:19:48.975Z,16.5
2019-01-08T02:20:38.489Z,16.5
2019-01-08T02:21:29.416Z,16.5
2019-01-08T02:22:18.594Z,16.5
2019-01-08T02:23:08.529Z,16.5
2019-01-08T02:23:58.501Z,16.5
2019-01-08T02:24:48.343Z,16.5
2019-01-08T02:25:38.876Z,16.5
2019-01-08T02:26:29.244Z,16.5
2019-01-08T02:27:19.002Z,16.5
2019-01-08T02:28:09.331Z,16.5
2019-01-08T02:28:58.552Z,16.5
2019-01-08T02:29:49.644Z,16.5
2019-01-08T02:30:39.482Z,16.5
2019-01-08T02:31:29.780Z,16.5
2019-01-08T02:32:22.539Z,16.5
2019-01-08T02:33:09.609Z,16.5
2019-01-08T02:34:00.328Z,16.5
2019-01-08T02:34:49.991Z,16.5
2019-01-08T02:35:40.094Z,16.5
2019-01-08T02:36:30.112Z,16.5
2019-01-08T02:37:19.891Z,16.5
2019-01-08T02:38:10.213Z,16.5
2019-01-08T02:39:00.339Z,16.5
2019-01-08T02:39:50.343Z,16.5
2019-01-08T02:40:40.400Z,16.5
2019-01-08T02:41:30.926Z,16.5
2019-01-08T02:42:20.836Z,16.5
2019-01-08T02:43:10.844Z,16.5
2019-01-08T02:44:01.474Z,16.5
2019-01-08T02:44:52.001Z,16.5
2019-01-08T02:45:40.720Z,16.5
2019-01-08T02:46:30.656Z,16.5
2019-01-08T02:47:20.855Z,16.5
2019-01-08T02:48:11.161Z,16.4
2019-01-08T02:49:00.138Z,16.5
2019-01-08T02:49:50.751Z,16.5
2019-01-08T02:50:40.505Z,16.5
2019-01-08T02:51:30.291Z,16.5
2019-01-08T02:52:20.912Z,16.5
2019-01-08T02:53:10.959Z,16.5
2019-01-08T02:54:01.570Z,16.5
2019-01-08T02:54:52.260Z,16.5
2019-01-08T02:55:41.108Z,16.5
2019-01-08T02:56:30.905Z,16.5
2019-01-08T02:57:21.587Z,16.5
2019-01-08T02:58:11.945Z,16.5
2019-01-08T02:59:01.882Z,16.5
2019-01-08T02:59:51.766Z,16.5
2019-01-08T03:00:41.445Z,16.5
2019-01-08T03:01:31.797Z,16.5
2019-01-08T03:02:21.561Z,16.5
2019-01-08T03:03:11.629Z,16.5
2019-01-08T03:04:01.408Z,16.5
2019-01-08T03:04:54.007Z,16.5
2019-01-08T03:05:42.322Z,16.5
2019-01-08T03:06:32.407Z,16.5
2019-01-08T03:07:22.454Z,16.5
2019-01-08T03:08:12.244Z,16.5
2019-01-08T03:09:02.575Z,16.5
2019-01-08T03:09:52.321Z,16.5
2019-01-08T03:10:42.392Z,16.5
2019-01-08T03:11:32.448Z,16.5
2019-01-08T03:12:22.490Z,16.6
2019-01-08T03:13:12.304Z,16.5
2019-01-08T03:14:02.352Z,16.6
2019-01-08T03:14:52.697Z,16.6
2019-01-08T03:15:42.186Z,16.6
2019-01-08T03:16:32.772Z,16.6
2019-01-08T03:17:22.847Z,16.6
2019-01-08T03:18:13.255Z,16.6
2019-01-08T03:19:02.946Z,16.6
2019-01-08T03:19:52.743Z,16.6
2019-01-08T03:20:42.510Z,16.6
2019-01-08T03:21:33.131Z,16.6
2019-01-08T03:22:23.459Z,16.6
2019-01-08T03:23:13.235Z,16.5
2019-01-08T03:24:03.293Z,16.6
2019-01-08T03:24:53.058Z,16.5
2019-01-08T03:25:43.120Z,16.6
2019-01-08T03:26:33.193Z,16.6
2019-01-08T03:27:23.813Z,16.6
2019-01-08T03:28:13.618Z,16.6
2019-01-08T03:29:03.631Z,16.6
2019-01-08T03:29:53.115Z,16.6
2019-01-08T03:30:43.831Z,16.6
2019-01-08T03:31:34.302Z,16.6
2019-01-08T03:32:23.962Z,16.6
2019-01-08T03:33:13.622Z,16.6
2019-01-08T03:34:03.972Z,16.6
2019-01-08T03:34:54.287Z,16.6
2019-01-08T03:35:43.507Z,16.6
2019-01-08T03:36:33.592Z,16.6
2019-01-08T03:37:23.915Z,16.6
2019-01-08T03:38:14.232Z,16.6
2019-01-08T03:39:03.772Z,16.6
2019-01-08T03:39:54.357Z,16.6
2019-01-08T03:40:44.129Z,16.6
2019-01-08T03:41:34.747Z,16.6
2019-01-08T03:42:24.244Z,16.6
2019-01-08T03:43:14.359Z,16.6
2019-01-08T03:44:04.454Z,16.6
2019-01-08T03:44:54.696Z,16.6
2019-01-08T03:45:44.762Z,16.6
2019-01-08T03:46:34.799Z,16.6
2019-01-08T03:47:24.587Z,16.6
2019-01-08T03:48:15.194Z,16.6
2019-01-08T03:49:05.264Z,16.6
2019-01-08T03:49:54.754Z,16.6
2019-01-08T03:50:45.079Z,16.6
2019-01-08T03:51:35.131Z,16.6
2019-01-08T03:52:25.200Z,16.6
2019-01-08T03:53:14.986Z,16.6
2019-01-08T03:54:05.374Z,16.6
2019-01-08T03:54:55.186Z,16.7
2019-01-08T03:55:45.150Z,16.6
2019-01-08T03:56:35.211Z,16.6
2019-01-08T03:57:25.251Z,16.6
2019-01-08T03:58:15.306Z,16.7
2019-01-08T03:59:05.930Z,16.6
2019-01-08T03:59:55.425Z,16.7
2019-01-08T04:00:45.751Z,16.6
2019-01-08T04:01:35.611Z,16.7
2019-01-08T04:02:26.148Z,16.7
2019-01-08T04:03:16.014Z,16.6
2019-01-08T04:04:06.325Z,16.7
2019-01-08T04:04:56.311Z,16.7
2019-01-08T04:05:45.815Z,16.7
2019-01-08T04:06:36.428Z,16.7
2019-01-08T04:07:25.921Z,16.6
2019-01-08T04:08:15.720Z,16.7
2019-01-08T04:09:06.048Z,16.7
2019-01-08T04:09:56.114Z,16.7
2019-01-08T04:10:46.155Z,16.7
2019-01-08T04:11:36.480Z,16.7
2019-01-08T04:12:26.825Z,16.7
2019-01-08T04:13:16.867Z,16.7
2019-01-08T04:14:06.921Z,16.7
2019-01-08T04:14:56.515Z,16.7
2019-01-08T04:15:45.944Z,16.7
2019-01-08T04:16:36.835Z,16.8
2019-01-08T04:17:26.598Z,16.8
2019-01-08T04:18:17.224Z,16.7
2019-01-08T04:19:07.322Z,16.8
2019-01-08T04:19:57.054Z,16.7
2019-01-08T04:20:47.387Z,16.8
2019-01-08T04:21:36.604Z,16.7
2019-01-08T04:22:26.924Z,16.8
2019-01-08T04:23:17.124Z,16.8
2019-01-08T04:24:07.334Z,16.8
2019-01-08T04:24:57.157Z,16.8
2019-01-08T04:25:47.810Z,16.8
2019-01-08T04:26:37.229Z,16.8
2019-01-08T04:27:27.824Z,16.8
2019-01-08T04:28:17.874Z,16.8
2019-01-08T04:29:07.371Z,16.8
2019-01-08T04:29:58.069Z,16.8
2019-01-08T04:30:47.519Z,16.8
2019-01-08T04:31:37.628Z,16.8
2019-01-08T04:32:27.881Z,16.8
2019-01-08T04:33:18.004Z,16.8
2019-01-08T04:34:07.994Z,16.8
2019-01-08T04:34:57.511Z,16.8
2019-01-08T04:35:48.292Z,16.8
2019-01-08T04:36:37.611Z,16.8
2019-01-08T04:37:27.471Z,16.8
2019-01-08T04:38:18.029Z,16.8
2019-01-08T04:39:08.398Z,16.8
2019-01-08T04:39:58.101Z,16.8
2019-01-08T04:40:48.433Z,16.8
2019-01-08T04:41:37.939Z,16.8
2019-01-08T04:42:28.831Z,16.8
2019-01-08T04:43:18.891Z,16.8
2019-01-08T04:44:08.118Z,16.8
2019-01-08T04:44:58.991Z,16.8
2019-01-08T05:02:15.232Z,16.8
2019-01-08T05:03:05.845Z,16.9
2019-01-08T05:03:55.701Z,16.9
2019-01-08T05:04:45.950Z,16.8
2019-01-08T05:05:35.714Z,16.9
2019-01-08T05:06:25.237Z,16.9
2019-01-08T05:07:16.109Z,16.8
2019-01-08T05:08:05.341Z,16.8
2019-01-08T05:08:55.702Z,16.8
2019-01-08T05:09:45.719Z,16.9
2019-01-08T05:10:36.064Z,16.8
2019-01-08T05:11:26.101Z,16.8
2019-01-08T05:12:15.877Z,16.8
2019-01-08T05:13:06.479Z,16.9
2019-01-08T05:13:56.044Z,16.8
2019-01-08T05:14:46.099Z,16.9
2019-01-08T05:15:36.661Z,16.9
2019-01-08T05:16:26.526Z,16.9
2019-01-08T05:17:16.774Z,16.9
2019-01-08T05:18:07.223Z,16.9
2019-01-08T05:18:56.674Z,16.9
2019-01-08T05:19:46.653Z,16.9
2019-01-08T05:20:36.711Z,16.9
2019-01-08T05:21:26.769Z,16.9
2019-01-08T05:22:16.004Z,16.9
2019-01-08T05:23:06.644Z,16.9
2019-01-08T05:23:57.228Z,16.9
2019-01-08T05:24:46.980Z,16.9
2019-01-08T05:25:36.511Z,16.9
2019-01-08T05:26:27.389Z,16.9
2019-01-08T05:27:16.889Z,16.9
2019-01-08T05:28:06.956Z,16.9
2019-01-08T05:28:57.635Z,16.9
2019-01-08T05:30:08.597Z,16.9
2019-01-08T05:31:27.161Z,16.9
2019-01-08T05:32:16.665Z,16.9
2019-01-08T05:33:07.559Z,16.9
2019-01-08T05:33:57.900Z,16.9
2019-01-08T05:34:47.937Z,16.9
2019-01-08T05:35:37.198Z,16.9
2019-01-08T05:36:27.508Z,16.9
2019-01-08T05:37:17.850Z,16.9
2019-01-08T05:38:07.939Z,16.9
2019-01-08T05:38:57.767Z,16.9
2019-01-08T05:39:48.285Z,16.9
2019-01-08T05:40:38.070Z,16.9
2019-01-08T05:41:27.832Z,16.9
2019-01-08T05:42:17.991Z,16.9
2019-01-08T05:43:07.957Z,16.9
2019-01-08T05:43:58.040Z,16.9
2019-01-08T05:44:47.792Z,16.9
2019-01-08T05:45:38.391Z,16.9
2019-01-08T05:46:28.715Z,16.9
2019-01-08T05:47:19.159Z,16.9
2019-01-08T05:48:08.589Z,16.9
2019-01-08T05:48:58.397Z,16.9
2019-01-08T05:49:48.498Z,16.9
2019-01-08T05:50:38.181Z,16.9
2019-01-08T05:51:28.877Z,16.9
2019-01-08T05:52:19.129Z,16.9
2019-01-08T05:53:09.186Z,16.9
2019-01-08T05:53:59.016Z,16.9
2019-01-08T05:54:48.461Z,16.9
2019-01-08T05:55:39.067Z,16.9
2019-01-08T05:56:28.864Z,16.9
2019-01-08T05:57:18.356Z,16.9
2019-01-08T05:58:09.496Z,16.9
2019-01-08T05:58:59.291Z,16.9
2019-01-08T05:59:49.064Z,16.9
2019-01-08T06:00:39.674Z,16.9
2019-01-08T06:01:28.907Z,16.9
2019-01-08T06:02:19.793Z,16.9
2019-01-08T06:03:09.843Z,16.9
2019-01-08T06:03:59.886Z,16.9
2019-01-08T06:04:49.473Z,16.9
2019-01-08T06:05:39.197Z,16.9
2019-01-08T06:06:29.784Z,16.9
2019-01-08T06:07:19.294Z,16.9
2019-01-08T06:08:10.175Z,16.9
2019-01-08T06:09:00.257Z,16.9
2019-01-08T06:09:49.453Z,16.9
2019-01-08T06:10:39.786Z,16.9
2019-01-08T06:11:29.908Z,16.9
2019-01-08T06:12:20.183Z,16.9
2019-01-08T06:13:10.513Z,16.9
2019-01-08T06:13:59.738Z,16.9
2019-01-08T06:14:50.695Z,16.9
2019-01-08T06:15:39.837Z,16.9
2019-01-08T06:16:30.450Z,16.9
2019-01-08T06:17:20.770Z,16.9
2019-01-08T06:18:10.550Z,16.9
2019-01-08T06:19:00.600Z,16.9
2019-01-08T06:19:50.725Z,16.9
2019-01-08T06:20:40.733Z,16.9
2019-01-08T06:21:30.491Z,16.9
2019-01-08T06:22:21.125Z,16.9
2019-01-08T06:23:10.597Z,16.9
2019-01-08T06:24:01.217Z,16.9
2019-01-08T06:24:51.037Z,16.9
2019-01-08T06:25:41.073Z,16.9
2019-01-08T06:26:30.842Z,16.9
2019-01-08T06:27:21.167Z,16.9
2019-01-08T06:28:11.510Z,16.9
2019-01-08T06:29:01.577Z,16.9
2019-01-08T06:29:51.102Z,16.9
2019-01-08T06:30:41.394Z,16.9
2019-01-08T06:31:31.169Z,16.9
2019-01-08T06:32:21.559Z,16.9
2019-01-08T06:33:11.556Z,16.9
2019-01-08T06:34:01.899Z,16.9
2019-01-08T06:34:51.657Z,16.9
2019-01-08T06:35:42.041Z,16.9
2019-01-08T06:36:31.827Z,16.9
2019-01-08T06:37:21.831Z,16.9
2019-01-08T06:38:11.884Z,16.9
2019-01-08T06:39:01.944Z,16.9
2019-01-08T06:39:52.278Z,16.9
2019-01-08T06:40:41.773Z,16.9
2019-01-08T06:41:32.161Z,16.9
2019-01-08T06:42:22.254Z,16.9
2019-01-08T06:43:11.939Z,16.9
2019-01-08T06:44:02.016Z,16.9
2019-01-08T06:44:52.333Z,16.9
2019-01-08T06:45:41.821Z,16.9
2019-01-08T06:46:32.461Z,16.9
2019-01-08T06:47:22.226Z,16.9
2019-01-08T06:48:12.336Z,16.9
2019-01-08T06:49:02.655Z,16.9
2019-01-08T06:49:52.938Z,16.9
2019-01-08T06:50:42.153Z,16.9
2019-01-08T06:51:32.503Z,16.9
2019-01-08T06:52:22.938Z,16.9
2019-01-08T06:53:12.605Z,16.9
2019-01-08T06:54:03.215Z,16.9
2019-01-08T06:54:53.272Z,16.9
2019-01-08T06:55:43.326Z,16.9
2019-01-08T06:56:32.328Z,16.9
2019-01-08T06:57:22.890Z,16.9
2019-01-08T06:58:13.218Z,16.9
2019-01-08T06:59:03.278Z,16.9
2019-01-08T06:59:53.595Z,16.9
2019-01-08T07:00:43.097Z,16.9
2019-01-08T07:01:33.145Z,16.9
2019-01-08T07:02:23.765Z,16.9
2019-01-08T07:03:13.552Z,16.9
2019-01-08T07:04:03.608Z,16.9
2019-01-08T07:04:52.880Z,16.9
2019-01-08T07:05:43.427Z,16.9
2019-01-08T07:06:34.038Z,16.9
2019-01-08T07:07:23.812Z,16.9
2019-01-08T07:08:14.148Z,16.9
2019-01-08T07:09:04.219Z,16.9
2019-01-08T07:09:54.250Z,16.9
2019-01-08T07:10:43.762Z,16.9
2019-01-08T07:11:33.534Z,16.9
2019-01-08T07:12:24.424Z,16.9
2019-01-08T07:13:13.924Z,16.9
2019-01-08T07:14:04.274Z,16.9
2019-01-08T07:14:54.327Z,16.9
2019-01-08T07:15:44.439Z,16.9
2019-01-08T07:16:34.702Z,16.9
2019-01-08T07:17:24.458Z,16.9
2019-01-08T07:18:14.260Z,16.9
2019-01-08T07:19:04.040Z,16.9
2019-01-08T07:19:54.441Z,16.9
2019-01-08T07:20:44.698Z,16.9
2019-01-08T07:21:34.499Z,16.9
2019-01-08T07:22:24.544Z,16.9
2019-01-08T07:23:14.872Z,16.9
2019-01-08T07:24:04.649Z,16.9
2019-01-08T07:24:55.256Z,16.9
2019-01-08T07:25:45.589Z,16.9
2019-01-08T07:26:34.541Z,16.9
2019-01-08T07:27:25.146Z,16.9
2019-01-08T07:28:15.483Z,16.9
2019-01-08T07:29:05.276Z,16.9
2019-01-08T07:29:55.601Z,16.9
2019-01-08T07:30:45.391Z,16.9
2019-01-08T07:31:35.774Z,16.9
2019-01-08T07:32:24.908Z,16.9
2019-01-08T07:33:15.803Z,16.9
2019-01-08T07:34:05.039Z,16.9
2019-01-08T07:34:55.639Z,16.9
2019-01-08T07:35:45.706Z,16.9
2019-01-08T07:36:35.770Z,16.9
2019-01-08T07:37:26.075Z,16.9
2019-01-08T07:38:15.323Z,16.9
2019-01-08T07:39:05.098Z,16.9
2019-01-08T07:39:55.988Z,16.9
2019-01-08T07:40:46.038Z,16.9
2019-01-08T07:41:36.358Z,16.9
2019-01-08T07:42:26.144Z,16.9
2019-01-08T07:43:16.173Z,16.9
2019-01-08T07:44:05.430Z,16.9
2019-01-08T07:44:56.035Z,16.9
2019-01-08T07:45:46.625Z,16.9
2019-01-08T07:46:35.862Z,16.9
2019-01-08T07:47:26.472Z,16.9
2019-01-08T07:48:16.812Z,16.9
2019-01-08T07:49:06.308Z,16.9
2019-01-08T07:49:56.090Z,16.9
2019-01-08T07:50:46.710Z,16.8
2019-01-08T07:51:36.747Z,16.9
2019-01-08T07:52:28.034Z,16.9
2019-01-08T07:53:17.132Z,16.9
2019-01-08T07:54:07.182Z,16.9
2019-01-08T07:54:56.698Z,16.9
2019-01-08T07:55:47.029Z,16.9
2019-01-08T07:56:36.799Z,16.9
2019-01-08T07:57:27.474Z,16.9
2019-01-08T07:58:16.365Z,16.9
2019-01-08T07:59:07.246Z,16.9
2019-01-08T07:59:57.029Z,16.9
2019-01-08T08:00:53.456Z,16.9
2019-01-08T08:01:37.407Z,16.9
2019-01-08T08:02:26.917Z,16.9
2019-01-08T08:03:17.259Z,16.9
2019-01-08T08:04:07.567Z,16.9
2019-01-08T08:04:57.912Z,16.9
2019-01-08T08:05:47.426Z,16.9
2019-01-08T08:06:38.029Z,16.9
2019-01-08T08:07:28.076Z,16.9
2019-01-08T08:08:17.858Z,16.9
2019-01-08T08:09:07.923Z,16.9
2019-01-08T08:09:57.704Z,16.9
2019-01-08T08:10:48.017Z,16.8
2019-01-08T08:11:37.796Z,16.8
2019-01-08T08:12:27.854Z,16.9
2019-01-08T08:13:18.192Z,16.8
2019-01-08T08:14:07.704Z,16.9
2019-01-08T08:14:58.018Z,16.9
2019-01-08T08:15:48.338Z,16.9
2019-01-08T08:16:37.881Z,16.9
2019-01-08T08:17:28.458Z,16.9
2019-01-08T08:18:17.965Z,16.9
2019-01-08T08:19:10.582Z,16.9
2019-01-08T08:19:58.918Z,16.8
2019-01-08T08:20:47.911Z,16.8
2019-01-08T08:21:39.103Z,16.9
2019-01-08T08:22:29.055Z,16.8
2019-01-08T08:23:18.890Z,16.8
2019-01-08T08:24:08.905Z,16.9
2019-01-08T08:24:59.213Z,16.8
2019-01-08T08:25:48.834Z,16.9
2019-01-08T08:26:38.642Z,16.8
2019-01-08T08:27:29.417Z,16.8
2019-01-08T08:28:18.667Z,16.9
2019-01-08T08:29:09.237Z,16.8
2019-01-08T08:29:59.270Z,16.8
2019-01-08T08:30:48.805Z,16.8
2019-01-08T08:31:39.510Z,16.8
2019-01-08T08:32:29.177Z,16.9
2019-01-08T08:33:19.375Z,16.8
2019-01-08T08:34:09.290Z,16.8
2019-01-08T08:35:09.372Z,16.8
2019-01-08T08:35:49.477Z,16.8
2019-01-08T08:36:40.012Z,16.8
2019-01-08T08:37:29.840Z,16.8
2019-01-08T08:38:19.560Z,16.9
2019-01-08T08:39:09.916Z,16.8
2019-01-08T08:39:59.674Z,16.8
2019-01-08T08:40:50.036Z,16.8
2019-01-08T08:41:40.347Z,16.8
2019-01-08T08:42:30.098Z,16.8
2019-01-08T08:43:20.219Z,16.8
2019-01-08T08:44:10.214Z,16.8
2019-01-08T08:45:00.024Z,16.8
2019-01-08T08:45:50.616Z,16.9
2019-01-08T08:46:40.669Z,16.8
2019-01-08T08:47:30.154Z,16.8
2019-01-08T08:48:20.771Z,16.8
2019-01-08T08:49:10.833Z,16.8
2019-01-08T08:50:01.004Z,16.8
2019-01-08T08:50:50.961Z,16.8
2019-01-08T08:51:40.783Z,16.8
2019-01-08T08:52:31.026Z,16.8
2019-01-08T08:53:20.916Z,16.8
2019-01-08T08:54:11.160Z,16.8
2019-01-08T08:55:01.333Z,16.8
2019-01-08T08:55:51.021Z,16.8
2019-01-08T08:56:41.060Z,16.8
2019-01-08T08:57:30.638Z,16.8
2019-01-08T08:58:20.953Z,16.8
2019-01-08T08:59:11.568Z,16.8
2019-01-08T09:00:01.646Z,16.8
2019-01-08T09:00:51.593Z,16.9
2019-01-08T09:16:45.521Z,16.8
2019-01-08T09:17:35.799Z,16.8
2019-01-08T09:18:25.395Z,16.9
2019-01-08T09:19:15.917Z,16.8
2019-01-08T09:20:05.686Z,16.8
2019-01-08T09:20:55.764Z,16.8
2019-01-08T09:21:46.119Z,16.8
2019-01-08T09:22:35.847Z,16.8
2019-01-08T09:23:25.906Z,16.8
2019-01-08T09:24:15.961Z,16.8
2019-01-08T09:25:05.757Z,16.8
2019-01-08T09:25:56.082Z,16.8
2019-01-08T09:26:45.861Z,16.8
2019-01-08T09:27:36.171Z,16.8
2019-01-08T09:28:26.589Z,16.8
2019-01-08T09:29:16.281Z,16.8
2019-01-08T09:30:05.804Z,16.8
2019-01-08T09:30:56.674Z,16.8
2019-01-08T09:31:46.517Z,16.8
2019-01-08T09:32:36.257Z,16.8
2019-01-08T09:33:26.841Z,16.8
2019-01-08T09:34:16.341Z,16.8
2019-01-08T09:35:06.396Z,16.8
2019-01-08T09:35:56.558Z,16.8
2019-01-08T09:36:46.526Z,16.9
2019-01-08T09:37:36.581Z,16.8
2019-01-08T09:38:26.918Z,16.8
2019-01-08T09:39:16.684Z,16.8
2019-01-08T09:40:07.019Z,16.8
2019-01-08T09:40:56.548Z,16.8
2019-01-08T09:41:46.928Z,16.8
2019-01-08T09:42:37.466Z,16.8
2019-01-08T09:43:27.054Z,16.8
2019-01-08T09:44:16.198Z,16.9
2019-01-08T09:45:07.089Z,16.8
2019-01-08T09:45:57.215Z,16.8
2019-01-08T09:46:47.788Z,16.9
2019-01-08T09:47:37.580Z,16.8
2019-01-08T09:48:27.895Z,16.8
2019-01-08T09:49:17.633Z,16.8
2019-01-08T09:50:07.685Z,16.9
2019-01-08T09:50:58.015Z,16.9
2019-01-08T09:51:47.255Z,16.8
2019-01-08T09:52:37.853Z,16.9
2019-01-08T09:53:27.922Z,16.8
2019-01-08T09:54:18.255Z,16.8
2019-01-08T09:55:07.223Z,16.8
2019-01-08T09:55:58.346Z,16.8
2019-01-08T09:56:48.235Z,16.8
2019-01-08T09:57:38.457Z,16
2019-01-08T09:58:28.517Z,14.6
2019-01-08T09:59:18.334Z,34.9
2019-01-08T10:00:08.664Z,51.7
2019-01-08T10:00:57.584Z,53.6
2019-01-08T10:01:48.840Z,52.1
2019-01-08T10:02:38.529Z,51.1
2019-01-08T10:03:28.384Z,50.3
2019-01-08T10:04:18.924Z,49.6
2019-01-08T10:05:08.154Z,48.8
2019-01-08T10:05:58.886Z,48.1
2019-01-08T10:06:48.825Z,47.3
2019-01-08T10:07:38.599Z,46.6
2019-01-08T10:08:28.651Z,45.9
2019-01-08T10:09:19.003Z,45.1
2019-01-08T10:10:08.577Z,44.4
2019-01-08T10:10:59.381Z,43.8
2019-01-08T10:11:49.440Z,43.1
2019-01-08T10:12:38.938Z,42.4
2019-01-08T10:13:29.573Z,41.8
2019-01-08T10:14:19.342Z,41.3
2019-01-08T10:15:09.136Z,40.7
2019-01-08T10:15:59.171Z,40.1
2019-01-08T10:16:49.216Z,39.6
2019-01-08T10:17:39.320Z,39.1
2019-01-08T10:18:29.610Z,38.5
2019-01-08T10:19:19.663Z,38.1
2019-01-08T10:20:09.542Z,37.6
2019-01-08T10:20:59.216Z,37.1
2019-01-08T10:21:50.205Z,36.6
2019-01-08T10:22:39.328Z,36.3
2019-01-08T10:23:29.940Z,37.9
2019-01-08T10:24:19.527Z,43.1
2019-01-08T10:25:10.055Z,55.6
2019-01-08T10:26:00.388Z,57.9
2019-01-08T10:26:49.903Z,56.5
2019-01-08T10:27:39.940Z,53.3
2019-01-08T10:28:30.265Z,50.4
2019-01-08T10:29:20.593Z,49
2019-01-08T10:30:09.862Z,48.3
2019-01-08T10:31:00.169Z,47.6
2019-01-08T10:31:50.225Z,46.8
2019-01-08T10:32:40.555Z,46
2019-01-08T10:33:29.862Z,45.3
2019-01-08T10:34:20.667Z,44.7
2019-01-08T10:35:09.905Z,44.1
2019-01-08T10:36:01.052Z,43.4
2019-01-08T10:36:50.833Z,42.9
2019-01-08T10:37:40.884Z,42.3
2019-01-08T10:38:30.694Z,41.8
2019-01-08T10:39:21.355Z,42.4
2019-01-08T10:40:10.323Z,43.9
2019-01-08T10:41:00.649Z,53.4
2019-01-08T10:41:51.259Z,57.6
2019-01-08T10:42:40.967Z,58.4
2019-01-08T10:43:31.002Z,57.6
2019-01-08T10:44:20.816Z,54.8
2019-01-08T10:45:11.491Z,51.7
2019-01-08T10:46:01.194Z,49.8
2019-01-08T10:46:51.251Z,48.7
2019-01-08T10:47:41.869Z,47.9
2019-01-08T10:48:31.716Z,47.3
2019-01-08T10:49:21.697Z,46.6
2019-01-08T10:50:11.471Z,46
2019-01-08T10:51:02.079Z,45.4
2019-01-08T10:51:51.321Z,44.9
2019-01-08T10:52:42.199Z,45.9
2019-01-08T10:53:31.147Z,51.5
2019-01-08T10:54:22.081Z,57
2019-01-08T10:55:11.552Z,58.4
2019-01-08T10:56:52.201Z,56.8
2019-01-08T10:57:42.256Z,54.1
2019-01-08T10:58:32.586Z,51.9
2019-01-08T10:59:21.588Z,51.4
2019-01-08T11:00:12.413Z,52.3
2019-01-08T11:01:02.003Z,53.7
2019-01-08T11:01:52.805Z,54.8
2019-01-08T11:02:42.318Z,55.2
2019-01-08T11:03:32.167Z,55.1
2019-01-08T11:04:22.970Z,54.4
2019-01-08T11:05:12.758Z,53.7
2019-01-08T11:06:01.993Z,53.3
2019-01-08T11:06:53.128Z,53.3
2019-01-08T11:07:42.363Z,53.5
2019-01-08T11:08:32.982Z,53.9
2019-01-08T11:09:23.050Z,54.1
2019-01-08T11:10:13.092Z,54.2
2019-01-08T11:11:02.331Z,54.1
2019-01-08T11:11:53.557Z,53.8
2019-01-08T11:12:43.565Z,53.6
2019-01-08T11:13:33.128Z,53.5
2019-01-08T11:14:22.807Z,53.6
2019-01-08T11:15:13.705Z,53.6
2019-01-08T11:16:03.216Z,53.8
2019-01-08T11:16:53.869Z,53.8
2019-01-08T11:17:43.319Z,53.8
2019-01-08T11:18:32.895Z,53.8
2019-01-08T11:19:23.709Z,53.7
2019-01-08T11:20:13.479Z,53.6
2019-01-08T11:21:04.159Z,53.6
2019-01-08T11:21:54.167Z,53.6
2019-01-08T11:22:43.937Z,53.7
2019-01-08T11:23:33.712Z,53.8
2019-01-08T11:24:24.047Z,53.8
2019-01-08T11:25:13.829Z,53.7
2019-01-08T11:26:03.945Z,53.7
2019-01-08T11:26:53.962Z,53.7
2019-01-08T11:27:44.542Z,53.7
2019-01-08T11:28:33.895Z,53.8
2019-01-08T11:29:23.827Z,53.8
2019-01-08T11:30:14.511Z,53.8
2019-01-08T11:31:04.014Z,53.8
2019-01-08T11:31:54.551Z,53.8
2019-01-08T11:32:44.319Z,53.8
2019-01-08T11:33:34.663Z,53.8
2019-01-08T11:34:24.442Z,53.8
2019-01-08T11:35:14.784Z,53.8
2019-01-08T11:36:04.342Z,53.8
2019-01-08T11:36:54.394Z,53.8
2019-01-08T11:37:44.934Z,53.7
2019-01-08T11:38:35.323Z,53.6
2019-01-08T11:39:24.781Z,53.6
2019-01-08T11:40:14.561Z,53.6
2019-01-08T11:41:04.974Z,53.6
2019-01-08T11:41:54.746Z,53.6
2019-01-08T11:42:45.008Z,53.6
2019-01-08T11:43:35.336Z,53.6
2019-01-08T11:44:27.532Z,53.6
2019-01-08T11:45:14.898Z,53.6
2019-01-08T11:46:05.105Z,53.5
2019-01-08T11:46:55.855Z,53.4
2019-01-08T11:47:45.688Z,53.4
2019-01-08T11:48:34.948Z,53.3
2019-01-08T11:49:25.729Z,53.3
2019-01-08T11:50:15.865Z,53.2
2019-01-08T11:51:05.848Z,53.2
2019-01-08T11:51:55.412Z,53.1
2019-01-08T11:52:47.832Z,53.1
2019-01-08T11:53:37.506Z,53.1
2019-01-08T11:54:26.075Z,53
2019-01-08T11:55:15.856Z,53
2019-01-08T11:56:06.210Z,53.1
2019-01-08T11:56:55.979Z,53
2019-01-08T11:57:45.535Z,53